Lawrenceburg, TN (38464)

6:54 PM CDT on March 26, 2017 (GMT -0500)
WLX Radio Studios | | Change Station

Elev 932 ft 35.25 °N, 87.33 °W | Updated 6 minutes ago

Partly Cloudy
Partly Cloudy
70.4 °F
Feels Like 76 °F
N
0.0
Wind Variable Wind from SSW
Gusts 0.0 mph

Today
High -- | Low -- °F
--% Chance of Precip.
Yesterday
High -- | Low -- °F
Precip. -- in
Pressure 29.96 in
Visibility 10.0 miles
Clouds Overcast 6500 ft
Heat Index 76 °F
Dew Point 54 °F
Humidity 57%
Rainfall 0.05 in
Snow Depth Not available.
6:44 AM 7:06 PM
Waning Crescent, 2% visible
METAR KMRC 262335Z AUTO 19008KT 10SM OVC065 21/13 A2996 RMK
Pressure 29.96 in
Visibility 10.0 miles
Clouds Overcast 6500 ft
Heat Index 76 °F
Dew Point 54 °F
Humidity 57%
Rainfall 0.05 in
Snow Depth Not available.
6:44 AM 7:06 PM
Waning Crescent, 2% visible
METAR KMRC 262335Z AUTO 19008KT 10SM OVC065 21/13 A2996 RMK

Get Severe Weather Alerts

Thanks for signing up!

Be on the lookout for a verification email in your inbox.

You'll start receiving the daily forecast at 8 AM.

×

10-Day Weather Forecast

Almanac

Astronomy

Mar. 26, 2017 Rise Set
Actual Time
Civil Twilight
Nautical Twilight
Astronomical Twilight
Moon
Length of Visible Light
Length of Day
Tomorrow will be .
, % of the Moon is Illuminated

Today's Extremes

State Highs State Lows

Community

WunderPhotos

Upload Photos

1,962,540 photos uploaded!

WunderBlog® & News

Nearby

Air Quality

  Air Quality AQ Index Pollutant
Not available.

Snow Depth

Station Depth Elevation

Earthquake Activity

City Distance Mag. Time & Date
Minimum magnitude displayed is 2.5.

Earthquake Activity

City Distance Mag. Time & Date
Minimum magnitude displayed is 2.5.

Coastal Water Temperatures

Place Temperature

Stations

Nearby Weather Stations

Station Location Temp. Windchill Dew Point Humidity Wind Precip. Elev Updated Type
                   

Watches & Warnings

There are currently no watches in effect.